UPS2430 KSAN-KSDF
Flight info
| Callsign | UPS2430 |
|---|---|
| Flight time | 3h 37m |
| Altitude | 37000 |
| Route | ZZOOO4 MTBAL LANCY J134 GUP SWO/N0470F390 RZC MOOCH MBELL5 |
| Aircraft | B763/H-SDE3FGHIM3RWXY/LB1 |
Departure
| Time | 2026-04-20 20:42 |
|---|---|
| Airport | San Diego International Airport (KSAN) |
Arrival
| Time | 2026-04-21 00:20 |
|---|---|
| Airport | Louisville Muhammad Ali International Airport (KSDF) |
| Time | Latitude | Longitude | Altitude | Speed | Heading |
|---|---|---|---|---|---|
| 2026-04-20 20:10 | 32.73661 | -117.18505 | 30 ft | 0 kts | 355° |
| 2026-04-20 20:30 | 32.73647 | -117.18504 | 30 ft | 2 kts | 355° |
| 2026-04-20 20:31 | 32.73631 | -117.18501 | 30 ft | 2 kts | 8° |
| 2026-04-20 20:31 | 32.73618 | -117.18509 | 30 ft | 2 kts | 53° |
| 2026-04-20 20:31 | 32.73613 | -117.18526 | 30 ft | 2 kts | 92° |
| 2026-04-20 20:31 | 32.73617 | -117.18542 | 30 ft | 2 kts | 131° |
| 2026-04-20 20:32 | 32.73622 | -117.18547 | 30 ft | 1 kts | 149° |
| 2026-04-20 20:32 | 32.73625 | -117.18550 | 30 ft | 0 kts | 144° |
| 2026-04-20 20:35 | 32.73617 | -117.18542 | 30 ft | 2 kts | 144° |
| 2026-04-20 20:35 | 32.73595 | -117.18523 | 30 ft | 4 kts | 144° |
| 2026-04-20 20:35 | 32.73565 | -117.18497 | 30 ft | 5 kts | 143° |
| 2026-04-20 20:36 | 32.73531 | -117.18468 | 30 ft | 6 kts | 143° |
| 2026-04-20 20:36 | 32.73495 | -117.18436 | 30 ft | 6 kts | 143° |
| 2026-04-20 20:36 | 32.73456 | -117.18403 | 30 ft | 6 kts | 146° |
| 2026-04-20 20:36 | 32.73416 | -117.18394 | 29 ft | 5 kts | 184° |
| 2026-04-20 20:37 | 32.73378 | -117.18407 | 29 ft | 5 kts | 196° |
| 2026-04-20 20:37 | 32.73344 | -117.18402 | 29 ft | 4 kts | 148° |
| 2026-04-20 20:37 | 32.73327 | -117.18370 | 29 ft | 5 kts | 115° |
| 2026-04-20 20:37 | 32.73312 | -117.18317 | 29 ft | 7 kts | 106° |
| 2026-04-20 20:38 | 32.73297 | -117.18253 | 30 ft | 8 kts | 105° |
| 2026-04-20 20:38 | 32.73280 | -117.18178 | 30 ft | 10 kts | 106° |
| 2026-04-20 20:38 | 32.73258 | -117.18089 | 30 ft | 12 kts | 106° |
| 2026-04-20 20:38 | 32.73232 | -117.17984 | 30 ft | 14 kts | 106° |
| 2026-04-20 20:39 | 32.73206 | -117.17873 | 31 ft | 13 kts | 106° |
| 2026-04-20 20:39 | 32.73181 | -117.17769 | 31 ft | 12 kts | 106° |
| 2026-04-20 20:39 | 32.73157 | -117.17669 | 31 ft | 12 kts | 106° |
| 2026-04-20 20:39 | 32.73122 | -117.17580 | 32 ft | 11 kts | 133° |
| 2026-04-20 20:40 | 32.73106 | -117.17564 | 32 ft | 0 kts | 140° |
| 2026-04-20 20:40 | 32.73092 | -117.17550 | 32 ft | 6 kts | 140° |
| 2026-04-20 20:41 | 32.73037 | -117.17519 | 32 ft | 8 kts | 185° |
| 2026-04-20 20:41 | 32.73015 | -117.17564 | 31 ft | 6 kts | 279° |
| 2026-04-20 20:41 | 32.73018 | -117.17577 | 31 ft | 0 kts | 283° |
| 2026-04-20 20:41 | 32.73066 | -117.17784 | 31 ft | 58 kts | 287° |
| 2026-04-20 20:42 | 32.73238 | -117.18488 | 29 ft | 118 kts | 286° |
| 2026-04-20 20:42 | 32.73522 | -117.19649 | 65 ft | 166 kts | 285° |
| 2026-04-20 20:42 | 32.73862 | -117.20940 | 767 ft | 164 kts | 288° |
| 2026-04-20 20:42 | 32.74218 | -117.22255 | 1172 ft | 187 kts | 287° |
| 2026-04-20 20:43 | 32.74652 | -117.23891 | 1303 ft | 223 kts | 286° |
| 2026-04-20 20:43 | 32.75073 | -117.25578 | 2101 ft | 197 kts | 286° |
| 2026-04-20 20:43 | 32.75439 | -117.27032 | 2524 ft | 176 kts | 286° |
| 2026-04-20 20:43 | 32.75766 | -117.28342 | 3013 ft | 162 kts | 286° |
| 2026-04-20 20:44 | 32.76067 | -117.29760 | 3070 ft | 188 kts | 284° |
| 2026-04-20 20:44 | 32.76390 | -117.31287 | 3597 ft | 197 kts | 281° |
| 2026-04-20 20:44 | 32.76271 | -117.32960 | 4160 ft | 214 kts | 243° |
| 2026-04-20 20:44 | 32.75291 | -117.34230 | 4943 ft | 220 kts | 208° |
| 2026-04-20 20:45 | 32.73754 | -117.34659 | 5499 ft | 242 kts | 174° |
| 2026-04-20 20:45 | 32.72172 | -117.33961 | 6365 ft | 252 kts | 141° |
| 2026-04-20 20:45 | 32.71846 | -117.33630 | 6639 ft | 252 kts | 135° |
| 2026-04-20 20:45 | 32.70690 | -117.32107 | 7592 ft | 259 kts | 134° |
| 2026-04-20 20:46 | 32.69389 | -117.30661 | 8722 ft | 258 kts | 140° |
| 2026-04-20 20:46 | 32.68034 | -117.29285 | 9742 ft | 262 kts | 141° |
| 2026-04-20 20:46 | 32.66632 | -117.27914 | 10683 ft | 266 kts | 142° |
| 2026-04-20 20:46 | 32.65182 | -117.26532 | 11603 ft | 271 kts | 143° |
| 2026-04-20 20:47 | 32.63794 | -117.24999 | 12271 ft | 287 kts | 127° |
| 2026-04-20 20:47 | 32.62948 | -117.22780 | 12799 ft | 310 kts | 104° |
| 2026-04-20 20:47 | 32.62683 | -117.20130 | 13367 ft | 331 kts | 97° |
| 2026-04-20 20:47 | 32.62460 | -117.17352 | 13934 ft | 349 kts | 98° |
| 2026-04-20 20:48 | 32.62204 | -117.14420 | 14499 ft | 369 kts | 98° |
| 2026-04-20 20:48 | 32.62055 | -117.11347 | 15014 ft | 390 kts | 89° |
| 2026-04-20 20:48 | 32.62550 | -117.08069 | 15517 ft | 415 kts | 73° |
| 2026-04-20 20:48 | 32.63621 | -117.04885 | 16350 ft | 425 kts | 68° |
| 2026-04-20 20:49 | 32.64724 | -117.01615 | 17258 ft | 433 kts | 70° |
| 2026-04-20 20:49 | 32.65807 | -116.98263 | 18195 ft | 438 kts | 73° |
| 2026-04-20 20:49 | 32.66523 | -116.94772 | 19120 ft | 441 kts | 83° |
| 2026-04-20 20:49 | 32.66739 | -116.91159 | 20054 ft | 444 kts | 90° |
| 2026-04-20 20:50 | 32.66878 | -116.87515 | 20892 ft | 450 kts | 85° |
| 2026-04-20 20:50 | 32.67501 | -116.83843 | 21788 ft | 457 kts | 75° |
| 2026-04-20 20:50 | 32.68634 | -116.80310 | 22538 ft | 465 kts | 65° |
| 2026-04-20 20:50 | 32.70275 | -116.76986 | 23365 ft | 470 kts | 56° |
| 2026-04-20 20:51 | 32.72358 | -116.73988 | 24071 ft | 476 kts | 46° |
| 2026-04-20 20:51 | 32.74829 | -116.71398 | 24720 ft | 483 kts | 36° |
| 2026-04-20 20:51 | 32.77665 | -116.69260 | 25409 ft | 487 kts | 27° |
| 2026-04-20 20:51 | 32.80794 | -116.67641 | 26031 ft | 492 kts | 18° |
| 2026-04-20 20:52 | 32.84087 | -116.66420 | 26669 ft | 496 kts | 17° |
| 2026-04-20 20:52 | 32.87365 | -116.65038 | 27240 ft | 502 kts | 19° |
| 2026-04-20 20:52 | 32.90622 | -116.63588 | 27843 ft | 506 kts | 20° |
| 2026-04-20 20:52 | 32.93914 | -116.62060 | 28321 ft | 512 kts | 20° |
| 2026-04-20 20:53 | 32.97224 | -116.60492 | 29047 ft | 511 kts | 21° |
| 2026-04-20 20:53 | 33.00529 | -116.58903 | 29708 ft | 512 kts | 21° |
| 2026-04-20 20:53 | 33.03743 | -116.57265 | 30439 ft | 509 kts | 22° |
| 2026-04-20 20:53 | 33.07006 | -116.55575 | 31135 ft | 507 kts | 22° |
| 2026-04-20 20:54 | 33.10223 | -116.53901 | 31759 ft | 506 kts | 22° |
| 2026-04-20 20:54 | 33.13480 | -116.52203 | 32347 ft | 504 kts | 22° |
| 2026-04-20 20:54 | 33.16672 | -116.50536 | 32880 ft | 504 kts | 21° |
| 2026-04-20 20:54 | 33.19868 | -116.48864 | 33406 ft | 502 kts | 21° |
| 2026-04-20 20:55 | 33.23053 | -116.47195 | 33969 ft | 501 kts | 21° |
| 2026-04-20 20:55 | 33.26276 | -116.45507 | 34438 ft | 502 kts | 21° |
| 2026-04-20 20:55 | 33.29452 | -116.43841 | 35010 ft | 499 kts | 22° |
| 2026-04-20 20:55 | 33.32647 | -116.42162 | 35435 ft | 500 kts | 21° |
| 2026-04-20 20:56 | 33.35738 | -116.40411 | 35867 ft | 500 kts | 28° |
| 2026-04-20 20:56 | 33.38682 | -116.38105 | 36294 ft | 501 kts | 37° |
| 2026-04-20 20:56 | 33.41272 | -116.35327 | 36614 ft | 503 kts | 46° |
| 2026-04-20 20:56 | 33.43501 | -116.32115 | 36983 ft | 502 kts | 54° |
| 2026-04-20 20:57 | 33.47642 | -116.25391 | 37030 ft | 505 kts | 54° |
| 2026-04-20 20:57 | 33.51736 | -116.18626 | 37000 ft | 499 kts | 54° |
| 2026-04-20 20:58 | 33.55769 | -116.11902 | 36981 ft | 499 kts | 55° |
| 2026-04-20 20:58 | 33.59717 | -116.05100 | 36975 ft | 498 kts | 61° |
| 2026-04-20 20:59 | 33.62602 | -115.97626 | 36998 ft | 495 kts | 68° |
| 2026-04-20 20:59 | 33.65288 | -115.90065 | 37026 ft | 492 kts | 68° |
| 2026-04-20 21:00 | 33.67937 | -115.82519 | 37053 ft | 492 kts | 68° |
| 2026-04-20 21:00 | 33.70571 | -115.74971 | 37090 ft | 491 kts | 69° |
| 2026-04-20 21:01 | 33.73191 | -115.67440 | 37082 ft | 492 kts | 69° |
| 2026-04-20 21:01 | 33.75818 | -115.59867 | 37061 ft | 492 kts | 69° |
| 2026-04-20 21:02 | 33.78430 | -115.52316 | 37025 ft | 488 kts | 69° |
| 2026-04-20 21:02 | 33.81022 | -115.44805 | 36997 ft | 487 kts | 69° |
| 2026-04-20 21:03 | 33.83604 | -115.37305 | 36984 ft | 488 kts | 69° |
| 2026-04-20 21:03 | 33.86196 | -115.29759 | 36964 ft | 489 kts | 69° |
| 2026-04-20 21:04 | 33.88778 | -115.22226 | 36947 ft | 485 kts | 69° |
| 2026-04-20 21:04 | 33.91332 | -115.14755 | 36958 ft | 485 kts | 69° |
| 2026-04-20 21:05 | 33.93877 | -115.07293 | 36965 ft | 485 kts | 69° |
| 2026-04-20 21:05 | 33.96435 | -114.99775 | 36965 ft | 483 kts | 69° |
| 2026-04-20 21:06 | 33.98960 | -114.92335 | 36967 ft | 483 kts | 69° |
| 2026-04-20 21:06 | 34.01505 | -114.84822 | 36961 ft | 484 kts | 69° |
| 2026-04-20 21:07 | 34.04018 | -114.77383 | 36963 ft | 483 kts | 69° |
| 2026-04-20 21:07 | 34.06540 | -114.69898 | 36963 ft | 483 kts | 68° |
| 2026-04-20 21:08 | 34.09061 | -114.62402 | 36960 ft | 483 kts | 68° |
| 2026-04-20 21:08 | 34.11567 | -114.54930 | 36945 ft | 482 kts | 68° |
| 2026-04-20 21:09 | 34.14064 | -114.47468 | 36947 ft | 481 kts | 68° |
| 2026-04-20 21:09 | 34.16559 | -114.39994 | 36947 ft | 480 kts | 68° |
| 2026-04-20 21:10 | 34.19043 | -114.32534 | 36944 ft | 480 kts | 69° |
| 2026-04-20 21:10 | 34.21534 | -114.25036 | 36943 ft | 481 kts | 69° |
| 2026-04-20 21:11 | 34.23998 | -114.17600 | 36942 ft | 481 kts | 69° |
| 2026-04-20 21:11 | 34.26473 | -114.10113 | 36944 ft | 480 kts | 68° |
| 2026-04-20 21:12 | 34.28643 | -114.02494 | 36951 ft | 480 kts | 71° |
| 2026-04-20 21:12 | 34.30746 | -113.94878 | 36961 ft | 480 kts | 71° |
| 2026-04-20 21:13 | 34.32854 | -113.87234 | 36978 ft | 478 kts | 71° |
| 2026-04-20 21:13 | 34.34943 | -113.79642 | 37005 ft | 479 kts | 71° |
| 2026-04-20 21:14 | 34.37040 | -113.72003 | 37019 ft | 480 kts | 71° |
| 2026-04-20 21:14 | 34.39128 | -113.64365 | 37051 ft | 480 kts | 70° |
| 2026-04-20 21:15 | 34.41197 | -113.56791 | 37069 ft | 472 kts | 70° |
| 2026-04-20 21:15 | 34.43256 | -113.49232 | 37107 ft | 472 kts | 70° |
| 2026-04-20 21:16 | 34.45296 | -113.41718 | 37106 ft | 473 kts | 70° |
| 2026-04-20 21:16 | 34.47333 | -113.34195 | 37120 ft | 471 kts | 71° |
| 2026-04-20 21:17 | 34.49368 | -113.26660 | 37126 ft | 471 kts | 71° |
| 2026-04-20 21:17 | 34.51386 | -113.19167 | 37126 ft | 470 kts | 70° |
| 2026-04-20 21:18 | 34.53416 | -113.11608 | 37134 ft | 471 kts | 70° |
| 2026-04-20 21:18 | 34.55422 | -113.04118 | 37158 ft | 470 kts | 70° |
| 2026-04-20 21:19 | 34.57430 | -112.96596 | 37183 ft | 468 kts | 70° |
| 2026-04-20 21:20 | 34.60424 | -112.85350 | 37202 ft | 468 kts | 70° |
| 2026-04-20 21:20 | 34.62402 | -112.77890 | 37201 ft | 466 kts | 70° |
| 2026-04-20 21:21 | 34.64386 | -112.70389 | 37200 ft | 468 kts | 70° |
| 2026-04-20 21:21 | 34.66366 | -112.62882 | 37202 ft | 467 kts | 70° |
| 2026-04-20 21:22 | 34.68331 | -112.55410 | 37204 ft | 466 kts | 70° |
| 2026-04-20 21:22 | 34.70290 | -112.47919 | 37210 ft | 467 kts | 70° |
| 2026-04-20 21:23 | 34.72036 | -112.40376 | 37198 ft | 465 kts | 71° |
| 2026-04-20 21:23 | 34.73767 | -112.32853 | 37201 ft | 464 kts | 72° |
| 2026-04-20 21:24 | 34.75496 | -112.25319 | 37216 ft | 466 kts | 72° |
| 2026-04-20 21:24 | 34.77231 | -112.17737 | 37221 ft | 465 kts | 72° |
| 2026-04-20 21:25 | 34.78954 | -112.10181 | 37203 ft | 463 kts | 72° |
| 2026-04-20 21:25 | 34.80659 | -112.02683 | 37193 ft | 464 kts | 71° |
| 2026-04-20 21:26 | 34.82376 | -111.95111 | 37183 ft | 461 kts | 72° |
| 2026-04-20 21:26 | 34.84068 | -111.87624 | 37186 ft | 463 kts | 71° |
| 2026-04-20 21:27 | 34.85772 | -111.80064 | 37212 ft | 464 kts | 71° |
| 2026-04-20 21:27 | 34.87467 | -111.72514 | 37215 ft | 463 kts | 71° |
| 2026-04-20 21:28 | 34.89162 | -111.64945 | 37237 ft | 464 kts | 71° |
| 2026-04-20 21:28 | 34.90843 | -111.57413 | 37255 ft | 464 kts | 71° |
| 2026-04-20 21:29 | 34.92531 | -111.49824 | 37256 ft | 463 kts | 71° |
| 2026-04-20 21:29 | 34.94207 | -111.42268 | 37259 ft | 464 kts | 71° |
| 2026-04-20 21:30 | 34.95886 | -111.34668 | 37235 ft | 465 kts | 72° |
| 2026-04-20 21:30 | 34.97552 | -111.27102 | 37244 ft | 465 kts | 72° |
| 2026-04-20 21:31 | 34.99223 | -111.19493 | 37239 ft | 465 kts | 72° |
| 2026-04-20 21:31 | 35.00880 | -111.11916 | 37242 ft | 464 kts | 72° |
| 2026-04-20 21:32 | 35.02528 | -111.04365 | 37235 ft | 464 kts | 72° |
| 2026-04-20 21:32 | 35.04180 | -110.96768 | 37234 ft | 465 kts | 71° |
| 2026-04-20 21:33 | 35.05831 | -110.89146 | 37207 ft | 466 kts | 72° |
| 2026-04-20 21:33 | 35.07486 | -110.81486 | 37204 ft | 466 kts | 72° |
| 2026-04-20 21:34 | 35.09122 | -110.73882 | 37178 ft | 466 kts | 72° |
| 2026-04-20 21:34 | 35.10754 | -110.66282 | 36988 ft | 465 kts | 72° |
| 2026-04-20 21:34 | 35.11572 | -110.62455 | 37450 ft | 464 kts | 72° |
| 2026-04-20 21:35 | 35.12393 | -110.58615 | 37145 ft | 469 kts | 72° |
| 2026-04-20 21:35 | 35.14017 | -110.50990 | 37212 ft | 466 kts | 72° |
| 2026-04-20 21:36 | 35.15644 | -110.43337 | 37243 ft | 469 kts | 72° |
| 2026-04-20 21:36 | 35.17269 | -110.35659 | 37234 ft | 469 kts | 72° |
| 2026-04-20 21:37 | 35.18888 | -110.27982 | 37145 ft | 465 kts | 73° |
| 2026-04-20 21:37 | 35.19694 | -110.24153 | 37252 ft | 467 kts | 73° |
| 2026-04-20 21:37 | 35.20497 | -110.20332 | 37242 ft | 469 kts | 73° |
| 2026-04-20 21:38 | 35.22121 | -110.12575 | 37243 ft | 470 kts | 73° |
| 2026-04-20 21:38 | 35.23727 | -110.04878 | 37241 ft | 470 kts | 73° |
| 2026-04-20 21:39 | 35.25333 | -109.97167 | 37258 ft | 470 kts | 73° |
| 2026-04-20 21:39 | 35.26931 | -109.89459 | 37265 ft | 469 kts | 73° |
| 2026-04-20 21:40 | 35.28531 | -109.81716 | 37270 ft | 469 kts | 73° |
| 2026-04-20 21:40 | 35.30122 | -109.73994 | 37268 ft | 470 kts | 73° |
| 2026-04-20 21:41 | 35.31712 | -109.66247 | 37284 ft | 470 kts | 73° |
| 2026-04-20 21:41 | 35.33292 | -109.58523 | 37289 ft | 470 kts | 73° |
| 2026-04-20 21:42 | 35.34870 | -109.50783 | 37287 ft | 471 kts | 73° |
| 2026-04-20 21:42 | 35.36445 | -109.43027 | 37297 ft | 471 kts | 73° |
| 2026-04-20 21:43 | 35.38019 | -109.35248 | 37297 ft | 471 kts | 73° |
| 2026-04-20 21:43 | 35.39588 | -109.27464 | 37304 ft | 471 kts | 74° |
| 2026-04-20 21:44 | 35.41153 | -109.19679 | 37314 ft | 471 kts | 74° |
| 2026-04-20 21:44 | 35.42707 | -109.11914 | 37332 ft | 472 kts | 75° |
| 2026-04-20 21:45 | 35.44255 | -109.04157 | 37325 ft | 472 kts | 74° |
| 2026-04-20 21:45 | 35.45810 | -108.96334 | 37318 ft | 471 kts | 75° |
| 2026-04-20 21:46 | 35.47339 | -108.88553 | 37302 ft | 472 kts | 77° |
| 2026-04-20 21:46 | 35.48322 | -108.80622 | 37265 ft | 475 kts | 80° |
| 2026-04-20 21:47 | 35.49240 | -108.72630 | 37276 ft | 474 kts | 80° |
| 2026-04-20 21:47 | 35.50137 | -108.64667 | 37296 ft | 473 kts | 80° |
| 2026-04-20 21:48 | 35.51030 | -108.56654 | 37293 ft | 474 kts | 81° |
| 2026-04-20 21:48 | 35.51911 | -108.48677 | 37300 ft | 474 kts | 80° |
| 2026-04-20 21:49 | 35.52787 | -108.40698 | 37318 ft | 475 kts | 81° |
| 2026-04-20 21:49 | 35.53659 | -108.32692 | 37329 ft | 476 kts | 81° |
| 2026-04-20 21:50 | 35.54532 | -108.24635 | 37332 ft | 476 kts | 81° |
| 2026-04-20 21:50 | 35.55394 | -108.16622 | 37334 ft | 475 kts | 81° |
| 2026-04-20 21:51 | 35.56252 | -108.08598 | 37331 ft | 476 kts | 81° |
| 2026-04-20 21:51 | 35.57104 | -108.00572 | 37314 ft | 476 kts | 81° |
| 2026-04-20 21:52 | 35.57951 | -107.92557 | 37315 ft | 475 kts | 81° |
| 2026-04-20 21:52 | 35.58794 | -107.84518 | 37308 ft | 476 kts | 81° |
| 2026-04-20 21:53 | 35.59634 | -107.76457 | 37318 ft | 477 kts | 81° |
| 2026-04-20 21:53 | 35.60469 | -107.68388 | 37316 ft | 477 kts | 82° |
| 2026-04-20 21:54 | 35.61298 | -107.60325 | 37315 ft | 478 kts | 82° |
| 2026-04-20 21:54 | 35.62122 | -107.52253 | 37302 ft | 478 kts | 82° |
| 2026-04-20 21:55 | 35.62940 | -107.44192 | 37311 ft | 477 kts | 82° |
| 2026-04-20 21:55 | 35.63753 | -107.36114 | 37301 ft | 479 kts | 82° |
| 2026-04-20 21:56 | 35.64564 | -107.28016 | 37307 ft | 480 kts | 82° |
| 2026-04-20 21:56 | 35.65372 | -107.19885 | 37314 ft | 480 kts | 83° |
| 2026-04-20 21:57 | 35.66169 | -107.11806 | 37320 ft | 479 kts | 83° |
| 2026-04-20 21:57 | 35.66966 | -107.03674 | 37297 ft | 480 kts | 83° |
| 2026-04-20 21:58 | 35.67757 | -106.95548 | 37287 ft | 479 kts | 83° |
| 2026-04-20 21:58 | 35.68539 | -106.87444 | 37298 ft | 480 kts | 83° |
| 2026-04-20 21:59 | 35.69322 | -106.79285 | 37282 ft | 480 kts | 83° |
| 2026-04-20 21:59 | 35.70097 | -106.71151 | 37292 ft | 481 kts | 83° |
| 2026-04-20 22:00 | 35.70865 | -106.63020 | 37295 ft | 481 kts | 83° |
| 2026-04-20 22:00 | 35.71629 | -106.54871 | 37335 ft | 483 kts | 83° |
| 2026-04-20 22:01 | 35.72392 | -106.46684 | 37317 ft | 481 kts | 83° |
| 2026-04-20 22:01 | 35.73145 | -106.38538 | 37281 ft | 482 kts | 83° |
| 2026-04-20 22:02 | 35.73893 | -106.30391 | 37249 ft | 480 kts | 84° |
| 2026-04-20 22:02 | 35.74633 | -106.22265 | 37256 ft | 482 kts | 84° |
| 2026-04-20 22:03 | 35.75373 | -106.14080 | 37244 ft | 481 kts | 84° |
| 2026-04-20 22:03 | 35.76105 | -106.05913 | 37248 ft | 480 kts | 84° |
| 2026-04-20 22:04 | 35.76827 | -105.97799 | 37252 ft | 482 kts | 84° |
| 2026-04-20 22:04 | 35.77552 | -105.89588 | 37290 ft | 482 kts | 84° |
| 2026-04-20 22:05 | 35.78267 | -105.81433 | 37283 ft | 480 kts | 84° |
| 2026-04-20 22:05 | 35.78973 | -105.73313 | 37301 ft | 481 kts | 84° |
| 2026-04-20 22:06 | 35.79677 | -105.65139 | 37308 ft | 482 kts | 84° |
| 2026-04-20 22:06 | 35.80381 | -105.56911 | 37320 ft | 482 kts | 84° |
| 2026-04-20 22:07 | 35.81074 | -105.48739 | 37308 ft | 482 kts | 84° |
| 2026-04-20 22:07 | 35.81763 | -105.40561 | 37332 ft | 484 kts | 84° |
| 2026-04-20 22:08 | 35.82449 | -105.32343 | 37303 ft | 482 kts | 84° |
| 2026-04-20 22:08 | 35.83129 | -105.24126 | 37292 ft | 482 kts | 84° |
| 2026-04-20 22:09 | 35.83801 | -105.15932 | 37275 ft | 482 kts | 84° |
| 2026-04-20 22:09 | 35.84467 | -105.07754 | 37272 ft | 482 kts | 84° |
| 2026-04-20 22:10 | 35.85125 | -104.99590 | 37274 ft | 482 kts | 85° |
| 2026-04-20 22:10 | 35.85785 | -104.91336 | 37294 ft | 485 kts | 84° |
| 2026-04-20 22:11 | 35.86438 | -104.83107 | 37272 ft | 483 kts | 84° |
| 2026-04-20 22:11 | 35.87082 | -104.74918 | 37277 ft | 483 kts | 84° |
| 2026-04-20 22:12 | 35.87722 | -104.66701 | 37282 ft | 485 kts | 84° |
| 2026-04-20 22:12 | 35.88358 | -104.58462 | 37269 ft | 483 kts | 85° |
| 2026-04-20 22:13 | 35.88990 | -104.50203 | 37272 ft | 485 kts | 85° |
| 2026-04-20 22:13 | 35.89596 | -104.42211 | 37259 ft | 483 kts | 85° |
| 2026-04-20 22:14 | 35.90213 | -104.34000 | 37237 ft | 484 kts | 85° |
| 2026-04-20 22:14 | 35.90830 | -104.25722 | 37225 ft | 483 kts | 85° |
| 2026-04-20 22:15 | 35.91436 | -104.17506 | 37216 ft | 483 kts | 85° |
| 2026-04-20 22:15 | 35.92036 | -104.09293 | 37234 ft | 486 kts | 85° |
| 2026-04-20 22:16 | 35.92635 | -104.01025 | 37220 ft | 486 kts | 85° |
| 2026-04-20 22:16 | 35.93228 | -103.92743 | 37223 ft | 486 kts | 85° |
| 2026-04-20 22:17 | 35.93818 | -103.84431 | 37214 ft | 486 kts | 85° |
| 2026-04-20 22:17 | 35.94400 | -103.76150 | 37199 ft | 486 kts | 85° |
| 2026-04-20 22:18 | 35.94977 | -103.67860 | 37187 ft | 486 kts | 85° |
| 2026-04-20 22:18 | 35.95547 | -103.59581 | 37195 ft | 488 kts | 85° |
| 2026-04-20 22:19 | 35.96111 | -103.51307 | 37203 ft | 486 kts | 85° |
| 2026-04-20 22:19 | 35.96671 | -103.43005 | 37184 ft | 486 kts | 85° |
| 2026-04-20 22:20 | 35.97226 | -103.34712 | 37190 ft | 489 kts | 86° |
| 2026-04-20 22:20 | 35.97778 | -103.26356 | 37196 ft | 489 kts | 86° |
| 2026-04-20 22:21 | 35.98323 | -103.18024 | 37183 ft | 487 kts | 86° |
| 2026-04-20 22:21 | 35.98857 | -103.09753 | 37177 ft | 489 kts | 86° |
| 2026-04-20 22:22 | 35.99391 | -103.01419 | 37173 ft | 488 kts | 86° |
| 2026-04-20 22:22 | 35.99916 | -102.93116 | 37139 ft | 487 kts | 86° |
| 2026-04-20 22:23 | 36.00437 | -102.84802 | 37168 ft | 489 kts | 86° |
| 2026-04-20 22:23 | 36.00955 | -102.76433 | 37145 ft | 489 kts | 86° |
| 2026-04-20 22:24 | 36.01468 | -102.68056 | 37149 ft | 489 kts | 86° |
| 2026-04-20 22:24 | 36.01970 | -102.59749 | 37172 ft | 491 kts | 86° |
| 2026-04-20 22:25 | 36.02473 | -102.51329 | 37171 ft | 491 kts | 86° |
| 2026-04-20 22:25 | 36.02969 | -102.42942 | 37154 ft | 491 kts | 86° |
| 2026-04-20 22:26 | 36.03457 | -102.34597 | 37165 ft | 490 kts | 86° |
| 2026-04-20 22:26 | 36.03940 | -102.26215 | 37151 ft | 489 kts | 86° |
| 2026-04-20 22:27 | 36.04655 | -102.13629 | 37140 ft | 492 kts | 87° |
| 2026-04-20 22:27 | 36.05127 | -102.05194 | 37156 ft | 490 kts | 86° |
| 2026-04-20 22:28 | 36.05587 | -101.96853 | 37135 ft | 491 kts | 87° |
| 2026-04-20 22:28 | 36.06046 | -101.88435 | 37131 ft | 492 kts | 87° |
| 2026-04-20 22:29 | 36.06500 | -101.80008 | 37137 ft | 494 kts | 86° |
| 2026-04-20 22:29 | 36.06948 | -101.71573 | 37146 ft | 493 kts | 87° |
| 2026-04-20 22:30 | 36.07389 | -101.63159 | 37137 ft | 492 kts | 87° |
| 2026-04-20 22:30 | 36.07824 | -101.54745 | 37121 ft | 494 kts | 87° |
| 2026-04-20 22:31 | 36.08253 | -101.46326 | 37158 ft | 493 kts | 87° |
| 2026-04-20 22:31 | 36.08678 | -101.37868 | 37142 ft | 493 kts | 87° |
| 2026-04-20 22:32 | 36.09097 | -101.29417 | 37135 ft | 495 kts | 87° |
| 2026-04-20 22:32 | 36.09508 | -101.21015 | 37150 ft | 493 kts | 88° |
| 2026-04-20 22:33 | 36.09917 | -101.12511 | 37147 ft | 495 kts | 88° |
| 2026-04-20 22:33 | 36.10322 | -101.03989 | 37135 ft | 496 kts | 88° |
| 2026-04-20 22:34 | 36.10716 | -100.95547 | 37134 ft | 496 kts | 88° |
| 2026-04-20 22:34 | 36.11108 | -100.87054 | 37136 ft | 495 kts | 88° |
| 2026-04-20 22:35 | 36.11491 | -100.78578 | 37118 ft | 497 kts | 88° |
| 2026-04-20 22:35 | 36.11869 | -100.70110 | 37122 ft | 495 kts | 88° |
| 2026-04-20 22:36 | 36.12242 | -100.61604 | 37144 ft | 497 kts | 87° |
| 2026-04-20 22:36 | 36.12609 | -100.53111 | 37137 ft | 497 kts | 87° |
| 2026-04-20 22:37 | 36.12970 | -100.44637 | 37130 ft | 495 kts | 87° |
| 2026-04-20 22:37 | 36.13326 | -100.36104 | 37131 ft | 496 kts | 88° |
| 2026-04-20 22:38 | 36.13674 | -100.27618 | 37126 ft | 496 kts | 88° |
| 2026-04-20 22:38 | 36.14019 | -100.19097 | 37145 ft | 496 kts | 88° |
| 2026-04-20 22:39 | 36.14356 | -100.10596 | 37104 ft | 495 kts | 88° |
| 2026-04-20 22:39 | 36.14684 | -100.02171 | 37107 ft | 495 kts | 88° |
| 2026-04-20 22:40 | 36.15008 | -99.93663 | 37125 ft | 498 kts | 88° |
| 2026-04-20 22:40 | 36.15331 | -99.85089 | 37120 ft | 499 kts | 88° |
| 2026-04-20 22:41 | 36.15644 | -99.76573 | 37137 ft | 498 kts | 88° |
| 2026-04-20 22:41 | 36.15953 | -99.68021 | 37130 ft | 497 kts | 88° |
| 2026-04-20 22:42 | 36.16255 | -99.59478 | 37135 ft | 499 kts | 88° |
| 2026-04-20 22:42 | 36.16551 | -99.50938 | 37133 ft | 498 kts | 88° |
| 2026-04-20 22:43 | 36.16839 | -99.42435 | 37121 ft | 498 kts | 88° |
| 2026-04-20 22:43 | 36.17125 | -99.33861 | 37129 ft | 499 kts | 89° |
| 2026-04-20 22:44 | 36.17403 | -99.25303 | 37118 ft | 499 kts | 88° |
| 2026-04-20 22:44 | 36.17675 | -99.16760 | 37121 ft | 497 kts | 88° |
| 2026-04-20 22:45 | 36.17939 | -99.08274 | 37125 ft | 498 kts | 88° |
| 2026-04-20 22:45 | 36.18199 | -98.99696 | 37123 ft | 499 kts | 88° |
| 2026-04-20 22:46 | 36.18452 | -98.91182 | 37131 ft | 498 kts | 88° |
| 2026-04-20 22:46 | 36.18700 | -98.82631 | 37131 ft | 499 kts | 88° |
| 2026-04-20 22:47 | 36.18943 | -98.74032 | 37135 ft | 500 kts | 88° |
| 2026-04-20 22:47 | 36.19179 | -98.65466 | 37127 ft | 500 kts | 88° |
| 2026-04-20 22:48 | 36.19408 | -98.56921 | 37120 ft | 501 kts | 88° |
| 2026-04-20 22:48 | 36.19633 | -98.48305 | 37119 ft | 501 kts | 88° |
| 2026-04-20 22:49 | 36.19850 | -98.39726 | 37115 ft | 501 kts | 88° |
| 2026-04-20 22:49 | 36.20064 | -98.31092 | 37120 ft | 501 kts | 89° |
| 2026-04-20 22:50 | 36.20269 | -98.22529 | 37131 ft | 501 kts | 89° |
| 2026-04-20 22:50 | 36.20469 | -98.13904 | 37137 ft | 501 kts | 89° |
| 2026-04-20 22:51 | 36.20663 | -98.05302 | 37139 ft | 501 kts | 89° |
| 2026-04-20 22:51 | 36.20850 | -97.96729 | 37156 ft | 502 kts | 89° |
| 2026-04-20 22:52 | 36.21032 | -97.88126 | 37153 ft | 501 kts | 89° |
| 2026-04-20 22:52 | 36.21207 | -97.79514 | 37148 ft | 502 kts | 89° |
| 2026-04-20 22:53 | 36.21376 | -97.70898 | 37158 ft | 503 kts | 89° |
| 2026-04-20 22:53 | 36.21540 | -97.62273 | 37158 ft | 503 kts | 89° |
| 2026-04-20 22:54 | 36.21697 | -97.53638 | 37158 ft | 503 kts | 88° |
| 2026-04-20 22:54 | 36.21848 | -97.45025 | 37166 ft | 505 kts | 89° |
| 2026-04-20 22:55 | 36.21993 | -97.36379 | 37170 ft | 502 kts | 88° |
| 2026-04-20 22:55 | 36.22132 | -97.27737 | 37158 ft | 503 kts | 89° |
| 2026-04-20 22:56 | 36.22265 | -97.19093 | 37168 ft | 505 kts | 89° |
| 2026-04-20 22:56 | 36.22391 | -97.10426 | 37177 ft | 506 kts | 89° |
| 2026-04-20 22:57 | 36.22550 | -97.01763 | 37174 ft | 504 kts | 88° |
| 2026-04-20 22:57 | 36.22713 | -96.93073 | 37171 ft | 506 kts | 89° |
| 2026-04-20 22:58 | 36.22871 | -96.84412 | 37170 ft | 506 kts | 89° |
| 2026-04-20 22:58 | 36.23022 | -96.75722 | 37164 ft | 506 kts | 88° |
| 2026-04-20 22:59 | 36.23169 | -96.66988 | 37164 ft | 506 kts | 88° |
| 2026-04-20 22:59 | 36.23307 | -96.58347 | 37176 ft | 507 kts | 88° |
| 2026-04-20 23:00 | 36.23441 | -96.49575 | 37165 ft | 507 kts | 88° |
| 2026-04-20 23:00 | 36.23568 | -96.40881 | 37172 ft | 506 kts | 88° |
| 2026-04-20 23:01 | 36.23689 | -96.32192 | 37166 ft | 507 kts | 89° |
| 2026-04-20 23:01 | 36.23803 | -96.23467 | 37181 ft | 508 kts | 89° |
| 2026-04-20 23:02 | 36.23911 | -96.14734 | 37189 ft | 509 kts | 89° |
| 2026-04-20 23:02 | 36.24013 | -96.05973 | 37204 ft | 509 kts | 89° |
| 2026-04-20 23:03 | 36.24109 | -95.97265 | 37214 ft | 508 kts | 89° |
| 2026-04-20 23:03 | 36.24198 | -95.88528 | 37220 ft | 508 kts | 88° |
| 2026-04-20 23:04 | 36.24281 | -95.79797 | 37214 ft | 509 kts | 89° |
| 2026-04-20 23:04 | 36.24357 | -95.71073 | 37213 ft | 509 kts | 88° |
| 2026-04-20 23:05 | 36.24428 | -95.62312 | 37213 ft | 511 kts | 88° |
| 2026-04-20 23:05 | 36.24492 | -95.53532 | 37219 ft | 512 kts | 88° |
| 2026-04-20 23:06 | 36.24550 | -95.44730 | 37222 ft | 511 kts | 88° |
| 2026-04-20 23:06 | 36.24602 | -95.35920 | 37212 ft | 511 kts | 88° |
| 2026-04-20 23:07 | 36.24646 | -95.27183 | 37213 ft | 511 kts | 89° |
| 2026-04-20 23:07 | 36.24684 | -95.18410 | 37204 ft | 511 kts | 89° |
| 2026-04-20 23:08 | 36.24717 | -95.09570 | 37202 ft | 513 kts | 89° |
| 2026-04-20 23:08 | 36.24742 | -95.00762 | 37213 ft | 514 kts | 89° |
| 2026-04-20 23:09 | 36.24761 | -94.91985 | 37195 ft | 512 kts | 89° |
| 2026-04-20 23:09 | 36.24774 | -94.83296 | 37207 ft | 511 kts | 89° |
| 2026-04-20 23:10 | 36.24781 | -94.74506 | 37217 ft | 513 kts | 89° |
| 2026-04-20 23:10 | 36.24780 | -94.65663 | 37229 ft | 514 kts | 88° |
| 2026-04-20 23:11 | 36.25362 | -94.56969 | 37260 ft | 508 kts | 73° |
| 2026-04-20 23:11 | 36.27824 | -94.48830 | 37267 ft | 505 kts | 62° |
| 2026-04-20 23:12 | 36.30392 | -94.40752 | 37257 ft | 507 kts | 67° |
| 2026-04-20 23:12 | 36.32626 | -94.32494 | 37238 ft | 507 kts | 69° |
| 2026-04-20 23:13 | 36.34748 | -94.24136 | 37236 ft | 509 kts | 70° |
| 2026-04-20 23:13 | 36.36814 | -94.15773 | 37236 ft | 508 kts | 70° |
| 2026-04-20 23:14 | 36.38856 | -94.07405 | 37242 ft | 508 kts | 70° |
| 2026-04-20 23:14 | 36.40884 | -93.99049 | 37236 ft | 509 kts | 70° |
| 2026-04-20 23:15 | 36.42918 | -93.90627 | 37254 ft | 509 kts | 70° |
| 2026-04-20 23:15 | 36.44939 | -93.82227 | 37252 ft | 509 kts | 70° |
| 2026-04-20 23:16 | 36.46942 | -93.73874 | 37242 ft | 509 kts | 70° |
| 2026-04-20 23:16 | 36.48956 | -93.65443 | 37228 ft | 508 kts | 70° |
| 2026-04-20 23:17 | 36.50952 | -93.57056 | 37242 ft | 508 kts | 69° |
| 2026-04-20 23:17 | 36.52942 | -93.48673 | 37239 ft | 508 kts | 70° |
| 2026-04-20 23:18 | 36.54925 | -93.40284 | 37248 ft | 508 kts | 69° |
| 2026-04-20 23:18 | 36.56892 | -93.31930 | 37217 ft | 507 kts | 70° |
| 2026-04-20 23:19 | 36.58878 | -93.23480 | 37240 ft | 509 kts | 70° |
| 2026-04-20 23:19 | 36.60858 | -93.15015 | 37226 ft | 509 kts | 70° |
| 2026-04-20 23:20 | 36.62822 | -93.06587 | 37223 ft | 509 kts | 70° |
| 2026-04-20 23:20 | 36.64772 | -92.98195 | 37218 ft | 509 kts | 70° |
| 2026-04-20 23:21 | 36.66722 | -92.89772 | 37221 ft | 508 kts | 69° |
| 2026-04-20 23:21 | 36.68676 | -92.81303 | 37041 ft | 509 kts | 69° |
| 2026-04-20 23:22 | 36.70618 | -92.72854 | 36879 ft | 507 kts | 70° |
| 2026-04-20 23:22 | 36.72538 | -92.64469 | 36718 ft | 506 kts | 69° |
| 2026-04-20 23:23 | 36.74464 | -92.56027 | 36654 ft | 503 kts | 69° |
| 2026-04-20 23:23 | 36.75411 | -92.51862 | 36970 ft | 499 kts | 69° |
| 2026-04-20 23:23 | 36.76348 | -92.47744 | 37229 ft | 499 kts | 69° |
| 2026-04-20 23:24 | 36.78238 | -92.39410 | 37192 ft | 505 kts | 69° |
| 2026-04-20 23:24 | 36.80152 | -92.30939 | 37164 ft | 508 kts | 70° |
| 2026-04-20 23:25 | 36.82059 | -92.22459 | 37161 ft | 508 kts | 70° |
| 2026-04-20 23:25 | 36.83954 | -92.14003 | 37174 ft | 507 kts | 70° |
| 2026-04-20 23:26 | 36.85838 | -92.05572 | 37176 ft | 506 kts | 70° |
| 2026-04-20 23:26 | 36.87717 | -91.97120 | 37196 ft | 507 kts | 70° |
| 2026-04-20 23:27 | 36.89594 | -91.88655 | 37194 ft | 506 kts | 70° |
| 2026-04-20 23:27 | 36.91462 | -91.80194 | 37189 ft | 506 kts | 69° |
| 2026-04-20 23:28 | 36.93315 | -91.71777 | 37185 ft | 505 kts | 70° |
| 2026-04-20 23:28 | 36.95173 | -91.63306 | 37176 ft | 505 kts | 69° |
| 2026-04-20 23:29 | 36.97010 | -91.54891 | 37172 ft | 506 kts | 69° |
| 2026-04-20 23:29 | 36.98849 | -91.46445 | 37162 ft | 505 kts | 69° |
| 2026-04-20 23:30 | 37.00682 | -91.37987 | 37134 ft | 506 kts | 69° |
| 2026-04-20 23:30 | 37.01602 | -91.33735 | 36992 ft | 507 kts | 70° |
| 2026-04-20 23:30 | 37.02481 | -91.29662 | 36834 ft | 507 kts | 70° |
| 2026-04-20 23:31 | 37.03388 | -91.25443 | 36667 ft | 505 kts | 70° |
| 2026-04-20 23:31 | 37.04290 | -91.21250 | 36504 ft | 503 kts | 70° |
| 2026-04-20 23:31 | 37.05195 | -91.17031 | 36351 ft | 502 kts | 70° |
| 2026-04-20 23:31 | 37.06097 | -91.12817 | 36203 ft | 502 kts | 70° |
| 2026-04-20 23:32 | 37.07002 | -91.08592 | 36061 ft | 504 kts | 70° |
| 2026-04-20 23:32 | 37.07904 | -91.04359 | 35937 ft | 504 kts | 70° |
| 2026-04-20 23:32 | 37.08804 | -91.00134 | 35818 ft | 504 kts | 70° |
| 2026-04-20 23:32 | 37.09696 | -90.95937 | 35694 ft | 503 kts | 70° |
| 2026-04-20 23:33 | 37.10593 | -90.91708 | 35586 ft | 503 kts | 70° |
| 2026-04-20 23:33 | 37.11447 | -90.87675 | 35486 ft | 501 kts | 70° |
| 2026-04-20 23:33 | 37.12336 | -90.83465 | 35375 ft | 500 kts | 70° |
| 2026-04-20 23:33 | 37.13220 | -90.79282 | 35267 ft | 501 kts | 70° |
| 2026-04-20 23:34 | 37.14992 | -90.70853 | 35066 ft | 500 kts | 70° |
| 2026-04-20 23:34 | 37.15877 | -90.66634 | 34965 ft | 500 kts | 69° |
| 2026-04-20 23:34 | 37.16753 | -90.62450 | 34861 ft | 499 kts | 69° |
| 2026-04-20 23:35 | 37.17632 | -90.58242 | 34760 ft | 498 kts | 69° |
| 2026-04-20 23:35 | 37.19376 | -90.49873 | 34562 ft | 500 kts | 69° |
| 2026-04-20 23:35 | 37.20249 | -90.45673 | 34456 ft | 500 kts | 69° |
| 2026-04-20 23:36 | 37.21125 | -90.41447 | 34361 ft | 499 kts | 69° |
| 2026-04-20 23:36 | 37.22861 | -90.33044 | 34152 ft | 497 kts | 70° |
| 2026-04-20 23:36 | 37.23725 | -90.28859 | 34022 ft | 497 kts | 69° |
| 2026-04-20 23:37 | 37.24588 | -90.24663 | 33898 ft | 498 kts | 70° |
| 2026-04-20 23:37 | 37.25449 | -90.20473 | 33767 ft | 499 kts | 69° |
| 2026-04-20 23:37 | 37.26308 | -90.16285 | 33640 ft | 500 kts | 70° |
| 2026-04-20 23:37 | 37.27179 | -90.12028 | 33517 ft | 500 kts | 70° |
| 2026-04-20 23:38 | 37.28027 | -90.07867 | 33391 ft | 497 kts | 70° |
| 2026-04-20 23:38 | 37.28881 | -90.03674 | 33263 ft | 496 kts | 69° |
| 2026-04-20 23:38 | 37.29736 | -89.99468 | 33138 ft | 497 kts | 70° |
| 2026-04-20 23:38 | 37.30585 | -89.95290 | 33019 ft | 498 kts | 69° |
| 2026-04-20 23:39 | 37.31433 | -89.91104 | 32905 ft | 498 kts | 70° |
| 2026-04-20 23:39 | 37.32282 | -89.86903 | 32786 ft | 498 kts | 69° |
| 2026-04-20 23:39 | 37.33134 | -89.82684 | 32664 ft | 498 kts | 70° |
| 2026-04-20 23:39 | 37.33987 | -89.78441 | 32542 ft | 499 kts | 69° |
| 2026-04-20 23:40 | 37.34825 | -89.74274 | 32431 ft | 499 kts | 69° |
| 2026-04-20 23:40 | 37.35669 | -89.70064 | 32309 ft | 498 kts | 69° |
| 2026-04-20 23:40 | 37.36512 | -89.65850 | 32193 ft | 498 kts | 69° |
| 2026-04-20 23:40 | 37.37349 | -89.61663 | 32076 ft | 496 kts | 69° |
| 2026-04-20 23:41 | 37.38193 | -89.57424 | 31948 ft | 496 kts | 69° |
| 2026-04-20 23:41 | 37.39014 | -89.53300 | 31836 ft | 494 kts | 69° |
| 2026-04-20 23:41 | 37.39852 | -89.49074 | 31717 ft | 493 kts | 69° |
| 2026-04-20 23:41 | 37.40670 | -89.44950 | 31599 ft | 492 kts | 69° |
| 2026-04-20 23:42 | 37.41499 | -89.40763 | 31477 ft | 491 kts | 69° |
| 2026-04-20 23:42 | 37.42309 | -89.36648 | 31364 ft | 490 kts | 69° |
| 2026-04-20 23:42 | 37.43129 | -89.32484 | 31244 ft | 489 kts | 70° |
| 2026-04-20 23:42 | 37.43944 | -89.28342 | 31115 ft | 488 kts | 70° |
| 2026-04-20 23:43 | 37.44754 | -89.24218 | 30989 ft | 487 kts | 70° |
| 2026-04-20 23:43 | 37.45567 | -89.20062 | 30861 ft | 486 kts | 70° |
| 2026-04-20 23:43 | 37.46364 | -89.15986 | 30726 ft | 484 kts | 70° |
| 2026-04-20 23:43 | 37.47167 | -89.11870 | 30602 ft | 484 kts | 70° |
| 2026-04-20 23:44 | 37.47972 | -89.07734 | 30481 ft | 484 kts | 70° |
| 2026-04-20 23:44 | 37.48759 | -89.03680 | 30351 ft | 482 kts | 70° |
| 2026-04-20 23:44 | 37.49552 | -88.99591 | 30222 ft | 480 kts | 70° |
| 2026-04-20 23:44 | 37.50342 | -88.95509 | 30101 ft | 480 kts | 70° |
| 2026-04-20 23:45 | 37.51125 | -88.91456 | 29968 ft | 480 kts | 70° |
| 2026-04-20 23:45 | 37.51914 | -88.87362 | 29834 ft | 478 kts | 70° |
| 2026-04-20 23:45 | 37.52691 | -88.83323 | 29709 ft | 478 kts | 70° |
| 2026-04-20 23:45 | 37.53467 | -88.79275 | 29582 ft | 477 kts | 70° |
| 2026-04-20 23:46 | 37.54238 | -88.75252 | 29453 ft | 475 kts | 70° |
| 2026-04-20 23:46 | 37.55006 | -88.71231 | 29321 ft | 474 kts | 69° |
| 2026-04-20 23:46 | 37.55777 | -88.67191 | 29257 ft | 472 kts | 70° |
| 2026-04-20 23:47 | 37.57310 | -88.59141 | 29259 ft | 474 kts | 69° |
| 2026-04-20 23:47 | 37.58833 | -88.51102 | 29263 ft | 473 kts | 69° |
| 2026-04-20 23:48 | 37.60359 | -88.43022 | 29266 ft | 475 kts | 69° |
| 2026-04-20 23:48 | 37.61867 | -88.34998 | 29269 ft | 476 kts | 69° |
| 2026-04-20 23:49 | 37.63390 | -88.26855 | 29262 ft | 476 kts | 70° |
| 2026-04-20 23:49 | 37.64902 | -88.18750 | 29263 ft | 475 kts | 70° |
| 2026-04-20 23:50 | 37.66681 | -88.10812 | 29092 ft | 466 kts | 60° |
| 2026-04-20 23:50 | 37.67887 | -88.07088 | 28950 ft | 452 kts | 61° |
| 2026-04-20 23:50 | 37.69022 | -88.03412 | 28793 ft | 439 kts | 61° |
| 2026-04-20 23:50 | 37.70090 | -87.99902 | 28642 ft | 431 kts | 61° |
| 2026-04-20 23:51 | 37.71148 | -87.96379 | 28505 ft | 429 kts | 61° |
| 2026-04-20 23:51 | 37.72200 | -87.92847 | 28375 ft | 433 kts | 61° |
| 2026-04-20 23:51 | 37.73256 | -87.89273 | 28249 ft | 437 kts | 61° |
| 2026-04-20 23:51 | 37.74306 | -87.85699 | 28120 ft | 437 kts | 62° |
| 2026-04-20 23:52 | 37.75352 | -87.82121 | 27913 ft | 434 kts | 62° |
| 2026-04-20 23:52 | 37.76402 | -87.78529 | 27566 ft | 434 kts | 62° |
| 2026-04-20 23:52 | 37.77439 | -87.74971 | 27228 ft | 431 kts | 62° |
| 2026-04-20 23:52 | 37.78461 | -87.71456 | 26885 ft | 427 kts | 62° |
| 2026-04-20 23:53 | 37.79477 | -87.67959 | 26543 ft | 424 kts | 62° |
| 2026-04-20 23:53 | 37.80498 | -87.64448 | 26224 ft | 425 kts | 62° |
| 2026-04-20 23:53 | 37.81501 | -87.60989 | 25895 ft | 424 kts | 62° |
| 2026-04-20 23:53 | 37.82514 | -87.57488 | 25550 ft | 421 kts | 62° |
| 2026-04-20 23:54 | 37.83486 | -87.54028 | 25188 ft | 421 kts | 65° |
| 2026-04-20 23:54 | 37.84142 | -87.50323 | 24451 ft | 452 kts | 75° |
| 2026-04-20 23:54 | 37.84330 | -87.46234 | 23752 ft | 478 kts | 85° |
| 2026-04-20 23:54 | 37.84002 | -87.42007 | 23034 ft | 484 kts | 95° |
| 2026-04-20 23:55 | 37.83399 | -87.37902 | 22247 ft | 469 kts | 94° |
| 2026-04-20 23:55 | 37.82874 | -87.33985 | 21706 ft | 449 kts | 95° |
| 2026-04-20 23:55 | 37.82369 | -87.30158 | 21166 ft | 434 kts | 94° |
| 2026-04-20 23:55 | 37.81895 | -87.26421 | 20433 ft | 427 kts | 94° |
| 2026-04-20 23:56 | 37.81432 | -87.22736 | 19613 ft | 422 kts | 93° |
| 2026-04-20 23:56 | 37.80983 | -87.19136 | 18917 ft | 418 kts | 93° |
| 2026-04-20 23:56 | 37.80533 | -87.15520 | 18478 ft | 415 kts | 93° |
| 2026-04-20 23:56 | 37.80083 | -87.11923 | 17962 ft | 412 kts | 93° |
| 2026-04-20 23:57 | 37.79642 | -87.08390 | 17470 ft | 409 kts | 93° |
| 2026-04-20 23:57 | 37.79200 | -87.04855 | 16951 ft | 407 kts | 94° |
| 2026-04-20 23:57 | 37.78758 | -87.01334 | 16450 ft | 405 kts | 94° |
| 2026-04-20 23:57 | 37.78323 | -86.97878 | 15923 ft | 403 kts | 94° |
| 2026-04-20 23:58 | 37.77882 | -86.94386 | 15391 ft | 401 kts | 94° |
| 2026-04-20 23:58 | 37.77444 | -86.90927 | 14858 ft | 397 kts | 94° |
| 2026-04-20 23:58 | 37.77013 | -86.87524 | 14336 ft | 393 kts | 94° |
| 2026-04-20 23:58 | 37.76585 | -86.84157 | 13876 ft | 388 kts | 94° |
| 2026-04-20 23:59 | 37.76158 | -86.80816 | 13399 ft | 383 kts | 95° |
| 2026-04-20 23:59 | 37.75736 | -86.77506 | 13005 ft | 381 kts | 95° |
| 2026-04-20 23:59 | 37.75316 | -86.74219 | 12600 ft | 378 kts | 95° |
| 2026-04-20 23:59 | 37.74900 | -86.70982 | 12198 ft | 374 kts | 95° |
| 2026-04-21 00:00 | 37.74484 | -86.67738 | 11786 ft | 373 kts | 95° |
| 2026-04-21 00:00 | 37.74069 | -86.64519 | 11384 ft | 370 kts | 95° |
| 2026-04-21 00:00 | 37.73655 | -86.61317 | 10975 ft | 369 kts | 95° |
| 2026-04-21 00:00 | 37.73246 | -86.58152 | 10570 ft | 368 kts | 96° |
| 2026-04-21 00:01 | 37.72894 | -86.54980 | 10088 ft | 363 kts | 88° |
| 2026-04-21 00:01 | 37.73096 | -86.51902 | 9687 ft | 350 kts | 73° |
| 2026-04-21 00:01 | 37.73604 | -86.48899 | 9407 ft | 355 kts | 73° |
| 2026-04-21 00:01 | 37.74101 | -86.45851 | 9070 ft | 346 kts | 73° |
| 2026-04-21 00:02 | 37.74585 | -86.42937 | 9082 ft | 343 kts | 73° |
| 2026-04-21 00:02 | 37.75084 | -86.39964 | 9083 ft | 346 kts | 73° |
| 2026-04-21 00:02 | 37.75582 | -86.36998 | 9087 ft | 348 kts | 73° |
| 2026-04-21 00:02 | 37.75906 | -86.33952 | 9083 ft | 353 kts | 86° |
| 2026-04-21 00:03 | 37.75729 | -86.30876 | 8786 ft | 361 kts | 92° |
| 2026-04-21 00:03 | 37.75490 | -86.27701 | 8710 ft | 351 kts | 92° |
| 2026-04-21 00:03 | 37.75254 | -86.24663 | 8734 ft | 352 kts | 92° |
| 2026-04-21 00:03 | 37.75016 | -86.21547 | 8730 ft | 356 kts | 92° |
| 2026-04-21 00:04 | 37.74781 | -86.18424 | 8670 ft | 357 kts | 91° |
| 2026-04-21 00:04 | 37.74571 | -86.15327 | 8437 ft | 352 kts | 91° |
| 2026-04-21 00:04 | 37.74357 | -86.12238 | 8332 ft | 350 kts | 91° |
| 2026-04-21 00:04 | 37.74146 | -86.09190 | 8365 ft | 349 kts | 91° |
| 2026-04-21 00:05 | 37.73935 | -86.06134 | 8340 ft | 350 kts | 91° |
| 2026-04-21 00:05 | 37.73713 | -86.03064 | 8210 ft | 358 kts | 92° |
| 2026-04-21 00:05 | 37.73481 | -85.99987 | 8005 ft | 349 kts | 92° |
| 2026-04-21 00:05 | 37.73251 | -85.96947 | 8005 ft | 347 kts | 91° |
| 2026-04-21 00:06 | 37.73023 | -85.93913 | 8008 ft | 349 kts | 91° |
| 2026-04-21 00:06 | 37.72794 | -85.90871 | 8007 ft | 350 kts | 91° |
| 2026-04-21 00:06 | 37.72561 | -85.87800 | 7811 ft | 354 kts | 91° |
| 2026-04-21 00:06 | 37.72325 | -85.84727 | 7631 ft | 347 kts | 91° |
| 2026-04-21 00:07 | 37.72097 | -85.81737 | 7503 ft | 343 kts | 91° |
| 2026-04-21 00:07 | 37.71865 | -85.78736 | 7502 ft | 343 kts | 91° |
| 2026-04-21 00:07 | 37.71616 | -85.75723 | 7543 ft | 347 kts | 95° |
| 2026-04-21 00:07 | 37.71020 | -85.72749 | 7512 ft | 348 kts | 101° |
| 2026-04-21 00:08 | 37.70714 | -85.69788 | 7541 ft | 343 kts | 84° |
| 2026-04-21 00:08 | 37.70752 | -85.66778 | 7592 ft | 345 kts | 91° |
| 2026-04-21 00:08 | 37.70428 | -85.63789 | 7608 ft | 345 kts | 91° |
| 2026-04-21 00:08 | 37.70371 | -85.60750 | 7617 ft | 343 kts | 85° |
| 2026-04-21 00:09 | 37.70370 | -85.57752 | 7635 ft | 343 kts | 85° |
| 2026-04-21 00:09 | 37.70379 | -85.54755 | 7622 ft | 341 kts | 85° |
| 2026-04-21 00:09 | 37.70551 | -85.51807 | 7555 ft | 335 kts | 72° |
| 2026-04-21 00:09 | 37.71326 | -85.49038 | 7065 ft | 335 kts | 56° |
| 2026-04-21 00:10 | 37.72648 | -85.46759 | 6323 ft | 319 kts | 39° |
| 2026-04-21 00:10 | 37.74407 | -85.45190 | 5595 ft | 305 kts | 20° |
| 2026-04-21 00:10 | 37.76392 | -85.44494 | 4879 ft | 295 kts | 2° |
| 2026-04-21 00:10 | 37.78409 | -85.44680 | 4142 ft | 289 kts | 343° |
| 2026-04-21 00:11 | 37.80169 | -85.45812 | 3421 ft | 286 kts | 318° |
| 2026-04-21 00:11 | 37.81542 | -85.47624 | 2705 ft | 286 kts | 311° |
| 2026-04-21 00:11 | 37.82821 | -85.49471 | 2349 ft | 272 kts | 311° |
| 2026-04-21 00:11 | 37.84000 | -85.51196 | 2351 ft | 249 kts | 311° |
| 2026-04-21 00:12 | 37.85082 | -85.52786 | 2456 ft | 226 kts | 311° |
| 2026-04-21 00:12 | 37.86063 | -85.54223 | 2601 ft | 208 kts | 311° |
| 2026-04-21 00:12 | 37.86963 | -85.55540 | 2791 ft | 192 kts | 311° |
| 2026-04-21 00:12 | 37.87824 | -85.56797 | 3082 ft | 189 kts | 311° |
| 2026-04-21 00:13 | 37.88731 | -85.58055 | 3368 ft | 197 kts | 313° |
| 2026-04-21 00:13 | 37.89670 | -85.59345 | 3470 ft | 200 kts | 312° |
| 2026-04-21 00:13 | 37.90616 | -85.60609 | 3480 ft | 195 kts | 315° |
| 2026-04-21 00:13 | 37.91553 | -85.61795 | 3472 ft | 183 kts | 314° |
| 2026-04-21 00:14 | 37.92441 | -85.62923 | 3484 ft | 180 kts | 314° |
| 2026-04-21 00:14 | 37.93319 | -85.64037 | 3529 ft | 172 kts | 314° |
| 2026-04-21 00:14 | 37.94262 | -85.64906 | 3755 ft | 170 kts | 333° |
| 2026-04-21 00:14 | 37.95353 | -85.65566 | 4004 ft | 175 kts | 333° |
| 2026-04-21 00:15 | 37.96474 | -85.66238 | 3992 ft | 177 kts | 333° |
| 2026-04-21 00:15 | 37.97537 | -85.66897 | 3968 ft | 166 kts | 330° |
| 2026-04-21 00:15 | 37.98578 | -85.67566 | 4001 ft | 170 kts | 334° |
| 2026-04-21 00:15 | 37.99696 | -85.68154 | 4026 ft | 173 kts | 338° |
| 2026-04-21 00:16 | 38.00806 | -85.68713 | 4007 ft | 172 kts | 338° |
| 2026-04-21 00:16 | 38.01941 | -85.69212 | 3947 ft | 176 kts | 341° |
| 2026-04-21 00:16 | 38.03113 | -85.69678 | 3741 ft | 177 kts | 342° |
| 2026-04-21 00:16 | 38.04314 | -85.70122 | 3414 ft | 179 kts | 343° |
| 2026-04-21 00:17 | 38.05500 | -85.70538 | 2966 ft | 180 kts | 344° |
| 2026-04-21 00:17 | 38.06696 | -85.70945 | 2463 ft | 173 kts | 345° |
| 2026-04-21 00:17 | 38.07824 | -85.71320 | 2127 ft | 163 kts | 346° |
| 2026-04-21 00:17 | 38.08930 | -85.71684 | 1915 ft | 166 kts | 346° |
| 2026-04-21 00:18 | 38.10010 | -85.72037 | 1715 ft | 170 kts | 346° |
| 2026-04-21 00:18 | 38.11177 | -85.72417 | 1478 ft | 169 kts | 346° |
| 2026-04-21 00:18 | 38.12286 | -85.72778 | 1254 ft | 167 kts | 346° |
| 2026-04-21 00:18 | 38.13234 | -85.73089 | 1066 ft | 165 kts | 345° |
| 2026-04-21 00:19 | 38.14348 | -85.73453 | 847 ft | 164 kts | 345° |
| 2026-04-21 00:19 | 38.15449 | -85.73812 | 614 ft | 163 kts | 345° |
| 2026-04-21 00:19 | 38.16184 | -85.74050 | 520 ft | 153 kts | 345° |
| 2026-04-21 00:19 | 38.17021 | -85.74326 | 511 ft | 119 kts | 345° |
| 2026-04-21 00:20 | 38.17471 | -85.74470 | 511 ft | 26 kts | 354° |
| 2026-04-21 00:20 | 38.17603 | -85.74452 | 511 ft | 9 kts | 22° |
| 2026-04-21 00:20 | 38.17645 | -85.74396 | 511 ft | 8 kts | 77° |
| 2026-04-21 00:20 | 38.17654 | -85.74315 | 511 ft | 9 kts | 96° |
| 2026-04-21 00:21 | 38.17610 | -85.74263 | 511 ft | 9 kts | 158° |
| 2026-04-21 00:21 | 38.17545 | -85.74239 | 511 ft | 10 kts | 165° |
| 2026-04-21 00:21 | 38.17461 | -85.74212 | 511 ft | 14 kts | 165° |
| 2026-04-21 00:21 | 38.17352 | -85.74175 | 511 ft | 18 kts | 165° |
| 2026-04-21 00:22 | 38.17232 | -85.74136 | 511 ft | 17 kts | 166° |
| 2026-04-21 00:22 | 38.17162 | -85.74099 | 511 ft | 9 kts | 133° |
| 2026-04-21 00:22 | 38.17133 | -85.74016 | 511 ft | 10 kts | 111° |
| 2026-04-21 00:22 | 38.17108 | -85.73930 | 511 ft | 6 kts | 106° |
| 2026-04-21 00:23 | 38.17120 | -85.73897 | 511 ft | 4 kts | 23° |
| 2026-04-21 00:23 | 38.17152 | -85.73881 | 511 ft | 2 kts | 21° |
| 2026-04-21 00:23 | 38.17153 | -85.73880 | 511 ft | 0 kts | 21° |